createdAt,value
2022-07-29T00:02:12.641Z,22.15
2022-07-29T00:04:40.017Z,22.18
2022-07-29T00:07:07.595Z,22.18
2022-07-29T00:09:44.881Z,22.38
2022-07-29T00:12:26.355Z,22.39
2022-07-29T00:14:58.043Z,22.46
2022-07-29T00:17:25.943Z,22.41
2022-07-29T00:19:53.303Z,22.46
2022-07-29T00:22:21.091Z,22.66
2022-07-29T00:24:49.655Z,22.40
2022-07-29T00:27:17.361Z,22.46
2022-07-29T00:29:44.816Z,22.60
2022-07-29T00:32:12.142Z,22.75
2022-07-29T00:34:57.744Z,22.60
2022-07-29T00:37:25.323Z,22.54
2022-07-29T00:39:52.673Z,22.47
2022-07-29T00:42:20.028Z,22.55
2022-07-29T00:44:47.500Z,22.51
2022-07-29T00:47:15.061Z,22.55
2022-07-29T00:49:42.772Z,22.51
2022-07-29T00:52:11.147Z,22.43
2022-07-29T00:54:44.483Z,22.45
2022-07-29T00:57:15.748Z,22.65
2022-07-29T00:59:43.094Z,22.33
2022-07-29T01:02:10.622Z,22.63
2022-07-29T01:04:40.448Z,22.44
2022-07-29T01:07:08.137Z,22.67
2022-07-29T01:09:45.714Z,22.84
2022-07-29T01:12:16.337Z,22.60
2022-07-29T01:14:46.343Z,22.64
2022-07-29T01:17:25.816Z,22.85
2022-07-29T01:20:04.507Z,22.82
2022-07-29T01:22:34.816Z,22.48
2022-07-29T01:25:18.822Z,22.33
2022-07-29T01:27:52.525Z,22.44
2022-07-29T01:30:20.410Z,22.25
2022-07-29T01:32:56.090Z,22.33
2022-07-29T01:35:29.130Z,22.53
2022-07-29T01:38:06.468Z,22.39
2022-07-29T01:40:36.759Z,22.20
2022-07-29T01:43:10.362Z,22.35
2022-07-29T01:45:42.826Z,22.54
2022-07-29T01:48:28.615Z,22.47
2022-07-29T01:51:04.853Z,21.94
2022-07-29T01:53:37.965Z,21.81
2022-07-29T01:56:07.776Z,22.03
2022-07-29T01:58:43.239Z,22.36
2022-07-29T02:01:14.854Z,22.29
2022-07-29T02:03:46.093Z,22.07
2022-07-29T02:06:22.210Z,21.97
2022-07-29T02:08:53.883Z,22.08
2022-07-29T02:11:21.193Z,22.32
2022-07-29T02:13:49.974Z,22.21
2022-07-29T02:16:20.145Z,21.91
2022-07-29T02:18:49.300Z,21.92
2022-07-29T02:21:21.199Z,21.87
2022-07-29T02:23:50.852Z,21.85
2022-07-29T02:26:20.102Z,21.92
2022-07-29T02:28:48.404Z,21.74
2022-07-29T02:31:18.323Z,21.93
2022-07-29T02:33:46.897Z,21.79
2022-07-29T02:36:17.120Z,21.22
2022-07-29T02:38:54.399Z,21.40
2022-07-29T02:41:25.358Z,21.55
2022-07-29T02:43:56.012Z,21.51
2022-07-29T02:46:30.365Z,21.42
2022-07-29T02:49:08.102Z,21.37
2022-07-29T02:51:46.197Z,21.42
2022-07-29T02:54:31.599Z,21.73
2022-07-29T02:57:02.501Z,21.73
2022-07-29T02:59:32.000Z,21.40
2022-07-29T03:02:00.316Z,21.17
2022-07-29T03:04:29.613Z,21.15
2022-07-29T03:06:57.939Z,21.26
2022-07-29T03:09:26.424Z,21.31
2022-07-29T03:11:56.965Z,21.10
2022-07-29T03:14:24.394Z,21.07
2022-07-29T03:16:52.508Z,21.07
2022-07-29T03:19:21.239Z,21.09
2022-07-29T03:21:48.908Z,21.04
2022-07-29T03:24:29.446Z,20.84
2022-07-29T03:26:58.801Z,20.74
2022-07-29T03:29:33.425Z,21.04
2022-07-29T03:32:08.352Z,21.13
2022-07-29T03:34:37.450Z,21.32
2022-07-29T03:37:05.346Z,21.44
2022-07-29T03:39:34.176Z,21.32
2022-07-29T03:42:02.157Z,21.52
2022-07-29T03:44:30.321Z,21.65
2022-07-29T03:47:03.176Z,21.16
2022-07-29T03:49:31.583Z,21.22
2022-07-29T03:51:59.188Z,21.46
2022-07-29T03:54:26.933Z,21.56
2022-07-29T03:56:55.871Z,21.53
2022-07-29T03:59:23.614Z,21.09
2022-07-29T04:01:51.352Z,21.13
2022-07-29T04:04:19.377Z,21.10
2022-07-29T04:06:49.473Z,21.18
2022-07-29T04:09:16.819Z,21.09
2022-07-29T04:12:03.451Z,20.92
2022-07-29T04:14:34.499Z,21.00
2022-07-29T04:17:02.600Z,21.08
2022-07-29T04:19:30.088Z,20.85
2022-07-29T04:22:00.804Z,21.06
2022-07-29T04:24:30.875Z,21.26
2022-07-29T04:26:58.295Z,21.39
2022-07-29T04:29:25.821Z,21.34
2022-07-29T04:31:53.184Z,21.40
2022-07-29T04:34:21.247Z,21.27
2022-07-29T04:36:48.773Z,21.34
2022-07-29T04:39:22.155Z,21.24
2022-07-29T04:41:56.368Z,21.27
2022-07-29T04:44:27.675Z,21.38
2022-07-29T04:46:59.449Z,21.39
2022-07-29T04:49:27.120Z,21.54
2022-07-29T04:51:57.586Z,21.59
2022-07-29T04:54:25.639Z,21.67
2022-07-29T04:56:55.090Z,21.75
2022-07-29T04:59:22.641Z,21.81
2022-07-29T05:01:50.109Z,22.23
2022-07-29T05:04:20.755Z,22.24
2022-07-29T05:06:48.593Z,22.20
2022-07-29T05:09:16.146Z,22.09
2022-07-29T05:11:43.591Z,22.11
2022-07-29T05:14:11.121Z,22.29
2022-07-29T05:16:40.251Z,22.37
2022-07-29T05:19:10.916Z,22.63
2022-07-29T05:21:41.755Z,22.74
2022-07-29T05:24:09.112Z,22.71
2022-07-29T05:26:36.596Z,22.58
2022-07-29T05:29:03.942Z,22.52
2022-07-29T05:31:33.065Z,23.05
2022-07-29T05:34:00.650Z,22.81
2022-07-29T05:36:31.309Z,22.91
2022-07-29T05:38:58.752Z,22.55
2022-07-29T05:41:26.890Z,22.83
2022-07-29T05:43:54.266Z,22.63
2022-07-29T05:46:23.922Z,22.95
2022-07-29T05:48:53.238Z,23.30
2022-07-29T05:51:22.843Z,23.29
2022-07-29T05:53:50.296Z,23.38
2022-07-29T05:56:17.670Z,23.58
2022-07-29T05:58:47.433Z,23.37
2022-07-29T06:01:14.831Z,23.34
2022-07-29T06:03:42.608Z,23.35
2022-07-29T06:06:13.023Z,23.53
2022-07-29T06:08:41.314Z,23.81
2022-07-29T06:11:11.696Z,24.18
2022-07-29T06:13:39.140Z,24.06
2022-07-29T06:16:06.510Z,24.46
2022-07-29T06:18:34.041Z,24.24
2022-07-29T06:21:01.518Z,25.38
2022-07-29T06:23:30.188Z,27.49
2022-07-29T06:25:57.920Z,28.17
2022-07-29T06:28:25.305Z,28.26
2022-07-29T06:30:52.840Z,29.06
2022-07-29T06:33:23.609Z,29.27
2022-07-29T06:35:53.402Z,29.79
2022-07-29T06:38:44.835Z,30.41
2022-07-29T06:41:17.348Z,29.17
2022-07-29T06:43:50.162Z,29.42
2022-07-29T06:46:20.811Z,31.21
2022-07-29T06:48:51.224Z,32.71
2022-07-29T06:51:23.150Z,32.32
2022-07-29T06:54:00.024Z,32.35
2022-07-29T06:56:32.571Z,31.89
2022-07-29T06:59:17.061Z,33.10
2022-07-29T07:01:44.730Z,32.91
2022-07-29T07:04:12.619Z,32.48
2022-07-29T07:06:40.285Z,31.78
2022-07-29T07:09:07.678Z,30.82
2022-07-29T07:11:38.093Z,30.39
2022-07-29T07:14:07.834Z,29.69
2022-07-29T07:16:35.169Z,28.96
2022-07-29T07:19:02.724Z,28.95
2022-07-29T07:21:31.084Z,29.54
2022-07-29T07:23:59.297Z,29.93
2022-07-29T07:26:26.895Z,30.80
2022-07-29T07:28:54.309Z,32.24
2022-07-29T07:31:21.808Z,32.20
2022-07-29T07:33:49.321Z,34.90
2022-07-29T07:36:16.858Z,35.44
2022-07-29T07:38:44.186Z,35.69
2022-07-29T07:41:11.560Z,32.52
2022-07-29T07:43:39.113Z,34.81
2022-07-29T07:46:06.541Z,35.34
2022-07-29T07:48:35.894Z,37.21
2022-07-29T07:51:04.120Z,36.16
2022-07-29T07:53:31.740Z,37.12
2022-07-29T07:56:15.475Z,36.48
2022-07-29T07:58:42.923Z,35.14
2022-07-29T08:01:10.550Z,35.86
2022-07-29T08:03:38.291Z,35.85
2022-07-29T08:06:06.000Z,36.60
2022-07-29T08:08:34.368Z,37.15
2022-07-29T08:11:06.894Z,36.01
2022-07-29T08:13:37.191Z,36.28
2022-07-29T08:16:13.980Z,35.43
2022-07-29T08:18:42.327Z,35.31
2022-07-29T08:21:09.564Z,35.70
2022-07-29T08:23:47.161Z,35.66
2022-07-29T08:26:18.688Z,37.40
2022-07-29T08:28:46.981Z,39.06
2022-07-29T08:31:15.128Z,40.17
2022-07-29T08:33:43.295Z,38.16
2022-07-29T08:36:10.855Z,40.11
2022-07-29T08:38:38.208Z,42.39
2022-07-29T08:41:05.877Z,43.04
2022-07-29T08:43:36.158Z,40.63
2022-07-29T08:46:03.555Z,38.38
2022-07-29T08:48:32.174Z,38.72
2022-07-29T08:51:00.344Z,38.82
2022-07-29T08:53:28.951Z,37.68
2022-07-29T08:55:57.108Z,39.64
2022-07-29T08:58:25.919Z,39.70
2022-07-29T09:00:58.174Z,40.60
2022-07-29T09:03:26.371Z,39.00
2022-07-29T09:05:54.154Z,39.40
2022-07-29T09:08:21.585Z,39.96
2022-07-29T09:10:51.618Z,38.61
2022-07-29T09:13:19.048Z,40.45
2022-07-29T09:15:46.495Z,39.45
2022-07-29T09:18:31.591Z,38.61
2022-07-29T09:21:17.695Z,39.48
2022-07-29T09:24:03.393Z,39.37
2022-07-29T09:26:31.873Z,39.30
2022-07-29T09:28:59.460Z,39.57
2022-07-29T09:31:37.075Z,39.43
2022-07-29T09:34:05.499Z,39.97
2022-07-29T09:36:39.418Z,39.48
2022-07-29T09:39:06.756Z,39.96
2022-07-29T09:41:47.135Z,40.07
2022-07-29T09:44:15.780Z,40.16
2022-07-29T09:47:09.473Z,39.79
2022-07-29T09:49:50.733Z,40.81
2022-07-29T09:52:18.114Z,37.71
2022-07-29T09:54:45.970Z,37.79
2022-07-29T09:57:28.640Z,38.20
2022-07-29T10:00:09.163Z,35.83
2022-07-29T10:02:45.207Z,36.37
2022-07-29T10:05:25.443Z,35.71
2022-07-29T10:07:57.559Z,35.77
2022-07-29T10:10:32.108Z,35.90
2022-07-29T10:13:06.947Z,35.78
2022-07-29T10:15:41.830Z,34.82
2022-07-29T10:18:09.644Z,35.10
2022-07-29T10:20:37.648Z,35.30
2022-07-29T10:23:05.214Z,34.88
2022-07-29T10:25:32.715Z,35.24
2022-07-29T10:28:00.144Z,35.62
2022-07-29T10:30:27.805Z,35.40
2022-07-29T10:33:19.054Z,35.69
2022-07-29T10:36:09.766Z,34.74
2022-07-29T10:38:51.545Z,35.52
2022-07-29T10:41:27.727Z,35.93
2022-07-29T10:44:03.606Z,35.86
2022-07-29T10:46:35.884Z,35.97
2022-07-29T10:49:12.321Z,35.75
2022-07-29T10:51:51.899Z,36.06
2022-07-29T10:54:20.139Z,36.34
2022-07-29T10:56:47.906Z,35.58
2022-07-29T10:59:21.728Z,35.38
2022-07-29T11:02:02.738Z,35.23
2022-07-29T11:04:47.273Z,35.40
2022-07-29T11:07:18.351Z,35.51
2022-07-29T11:10:07.394Z,35.02
2022-07-29T11:12:37.546Z,34.65
2022-07-29T11:15:19.951Z,34.55
2022-07-29T11:17:53.321Z,34.29
2022-07-29T11:20:39.168Z,34.85
2022-07-29T11:23:22.826Z,34.54
2022-07-29T11:26:09.236Z,34.73
2022-07-29T11:28:40.738Z,35.12
2022-07-29T11:31:09.494Z,35.73
2022-07-29T11:33:56.074Z,34.31
2022-07-29T11:36:28.254Z,33.92
2022-07-29T11:39:18.372Z,33.64
2022-07-29T11:41:49.528Z,33.55
2022-07-29T11:44:18.028Z,33.99
2022-07-29T11:46:48.115Z,33.91
2022-07-29T11:49:31.486Z,33.56
2022-07-29T11:52:04.312Z,33.20
2022-07-29T11:54:33.960Z,34.18
2022-07-29T11:57:20.344Z,34.11
2022-07-29T11:59:49.259Z,33.92
2022-07-29T12:02:37.575Z,34.24
2022-07-29T12:05:10.800Z,34.57
2022-07-29T12:07:39.280Z,34.35
2022-07-29T12:10:11.433Z,34.00
2022-07-29T12:12:54.654Z,34.31
2022-07-29T12:15:25.075Z,33.28
2022-07-29T12:18:13.291Z,33.71
2022-07-29T12:20:40.929Z,34.07
2022-07-29T12:23:10.080Z,33.82
2022-07-29T12:25:40.202Z,33.44
2022-07-29T12:28:10.611Z,33.76
2022-07-29T12:30:46.389Z,34.25
2022-07-29T12:33:19.459Z,33.54
2022-07-29T12:36:15.606Z,33.57
2022-07-29T12:38:44.991Z,33.62
2022-07-29T12:41:12.407Z,34.18
2022-07-29T13:14:06.980Z,33.87
2022-07-29T13:28:51.585Z,34.18
2022-07-29T13:36:14.042Z,33.71
2022-07-29T13:41:54.294Z,33.98
2022-07-29T13:44:27.922Z,33.97
2022-07-29T13:47:00.856Z,33.81
2022-07-29T14:01:36.105Z,33.40
2022-07-29T14:04:05.269Z,32.92
2022-07-29T14:23:38.467Z,33.37
2022-07-29T14:26:39.826Z,33.34
2022-07-29T14:29:22.954Z,33.66
2022-07-29T14:32:06.023Z,33.15
2022-07-29T14:34:36.229Z,33.02
2022-07-29T14:37:07.129Z,33.03
2022-07-29T14:39:43.248Z,33.01
2022-07-29T14:42:46.165Z,33.03
2022-07-29T14:45:20.562Z,32.71
2022-07-29T14:47:55.123Z,32.74
2022-07-29T14:50:33.451Z,32.76
2022-07-29T14:53:08.105Z,32.33
2022-07-29T14:55:37.140Z,32.45
2022-07-29T15:02:46.043Z,32.12
2022-07-29T15:05:30.743Z,31.59
2022-07-29T15:08:21.139Z,31.38
2022-07-29T15:18:40.421Z,31.06
2022-07-29T15:21:21.864Z,30.86
2022-07-29T15:23:51.445Z,30.79
2022-07-29T15:26:23.633Z,30.62
2022-07-29T15:28:56.302Z,30.58
2022-07-29T15:31:34.008Z,30.77
2022-07-29T15:34:19.452Z,30.67
2022-07-29T15:37:02.309Z,30.55
2022-07-29T15:39:31.209Z,30.35
2022-07-29T15:42:01.704Z,30.41
2022-07-29T15:44:40.849Z,30.56
2022-07-29T15:47:16.033Z,30.46
2022-07-29T15:49:50.617Z,30.46
2022-07-29T15:52:25.054Z,30.36
2022-07-29T15:55:35.880Z,30.43
2022-07-29T16:50:43.328Z,26.77
2022-07-29T16:56:25.191Z,26.99
2022-07-29T17:07:54.599Z,27.27
2022-07-29T17:27:00.942Z,26.65
2022-07-29T23:54:11.820Z,21.39
